sensor_id;sensor_type;location;lat;lon;timestamp;pressure;altitude;pressure_sealevel;temperature;humidity
13952;BME280;39535;52.192;9.886;2023-04-26T00:00:48;100542.16;;;2.81;89.75
13952;BME280;39535;52.192;9.886;2023-04-26T00:03:14;100520.00;;;2.94;91.17
13952;BME280;39535;52.192;9.886;2023-04-26T00:05:41;100531.13;;;2.90;90.25
13952;BME280;39535;52.192;9.886;2023-04-26T00:08:08;100531.88;;;2.83;89.78
13952;BME280;39535;52.192;9.886;2023-04-26T00:10:34;100529.19;;;2.76;90.37
13952;BME280;39535;52.192;9.886;2023-04-26T00:13:02;100519.69;;;2.72;90.66
13952;BME280;39535;52.192;9.886;2023-04-26T00:15:30;100527.38;;;2.68;90.16
13952;BME280;39535;52.192;9.886;2023-04-26T00:17:56;100528.19;;;2.67;90.39
13952;BME280;39535;52.192;9.886;2023-04-26T00:20:23;100521.22;;;2.59;90.79
13952;BME280;39535;52.192;9.886;2023-04-26T00:22:50;100514.38;;;2.62;91.03
13952;BME280;39535;52.192;9.886;2023-04-26T00:25:16;100512.00;;;2.75;91.33
13952;BME280;39535;52.192;9.886;2023-04-26T00:27:43;100494.13;;;2.89;91.85
13952;BME280;39535;52.192;9.886;2023-04-26T00:30:10;100496.09;;;3.06;91.24
13952;BME280;39535;52.192;9.886;2023-04-26T00:32:38;100520.81;;;2.91;90.16
13952;BME280;39535;52.192;9.886;2023-04-26T00:35:05;100532.00;;;2.92;89.97
13952;BME280;39535;52.192;9.886;2023-04-26T00:37:33;100536.75;;;2.64;89.87
13952;BME280;39535;52.192;9.886;2023-04-26T00:40:00;100523.06;;;2.68;91.55
13952;BME280;39535;52.192;9.886;2023-04-26T00:42:26;100507.84;;;2.85;91.41
13952;BME280;39535;52.192;9.886;2023-04-26T00:44:53;100516.47;;;2.86;90.37
13952;BME280;39535;52.192;9.886;2023-04-26T00:47:21;100528.66;;;3.01;90.53
13952;BME280;39535;52.192;9.886;2023-04-26T00:49:50;100542.28;;;2.90;89.85
13952;BME280;39535;52.192;9.886;2023-04-26T00:52:17;100552.72;;;3.01;89.36
13952;BME280;39535;52.192;9.886;2023-04-26T00:54:44;100552.66;;;2.93;89.40
13952;BME280;39535;52.192;9.886;2023-04-26T00:57:11;100563.06;;;3.01;88.27
13952;BME280;39535;52.192;9.886;2023-04-26T00:59:37;100576.06;;;3.09;88.92
13952;BME280;39535;52.192;9.886;2023-04-26T01:02:04;100586.44;;;3.12;87.92
13952;BME280;39535;52.192;9.886;2023-04-26T01:04:30;100599.25;;;3.09;87.75
13952;BME280;39535;52.192;9.886;2023-04-26T01:07:00;100614.53;;;2.95;87.43
13952;BME280;39535;52.192;9.886;2023-04-26T01:09:28;100602.69;;;3.06;88.39
13952;BME280;39535;52.192;9.886;2023-04-26T01:11:57;100622.25;;;2.92;87.47
13952;BME280;39535;52.192;9.886;2023-04-26T01:14:24;100619.81;;;3.03;87.71
13952;BME280;39535;52.192;9.886;2023-04-26T01:16:51;100635.31;;;3.04;87.35
13952;BME280;39535;52.192;9.886;2023-04-26T01:19:18;100643.06;;;3.06;86.98
13952;BME280;39535;52.192;9.886;2023-04-26T01:21:45;100643.03;;;3.04;87.18
13952;BME280;39535;52.192;9.886;2023-04-26T01:24:16;100644.06;;;3.14;86.88
13952;BME280;39535;52.192;9.886;2023-04-26T01:26:43;100668.13;;;3.14;86.21
13952;BME280;39535;52.192;9.886;2023-04-26T01:29:15;100668.09;;;3.11;86.14
13952;BME280;39535;52.192;9.886;2023-04-26T01:31:41;100671.53;;;3.12;86.28
13952;BME280;39535;52.192;9.886;2023-04-26T01:34:08;100691.22;;;3.07;85.66
13952;BME280;39535;52.192;9.886;2023-04-26T01:36:35;100690.19;;;2.97;86.59
13952;BME280;39535;52.192;9.886;2023-04-26T01:39:01;100679.00;;;2.95;86.59
13952;BME280;39535;52.192;9.886;2023-04-26T01:41:30;100682.34;;;2.88;86.14
13952;BME280;39535;52.192;9.886;2023-04-26T01:43:57;100677.19;;;2.88;86.70
13952;BME280;39535;52.192;9.886;2023-04-26T01:46:24;100672.69;;;2.76;87.52
13952;BME280;39535;52.192;9.886;2023-04-26T01:48:51;100655.28;;;2.63;88.01
13952;BME280;39535;52.192;9.886;2023-04-26T01:51:17;100638.28;;;2.74;88.00
13952;BME280;39535;52.192;9.886;2023-04-26T01:53:44;100638.28;;;2.74;87.95
13952;BME280;39535;52.192;9.886;2023-04-26T01:56:11;100636.69;;;2.82;87.58
13952;BME280;39535;52.192;9.886;2023-04-26T01:58:41;100629.56;;;2.66;88.92
13952;BME280;39535;52.192;9.886;2023-04-26T02:01:08;100625.19;;;2.60;88.63
13952;BME280;39535;52.192;9.886;2023-04-26T02:03:35;100606.22;;;2.56;89.37
13952;BME280;39535;52.192;9.886;2023-04-26T02:06:02;100599.34;;;2.57;89.27
13952;BME280;39535;52.192;9.886;2023-04-26T02:08:29;100596.78;;;2.57;88.95
13952;BME280;39535;52.192;9.886;2023-04-26T02:10:56;100597.63;;;2.57;88.75
13952;BME280;39535;52.192;9.886;2023-04-26T02:13:23;100594.13;;;2.52;89.12
13952;BME280;39535;52.192;9.886;2023-04-26T02:15:51;100594.16;;;2.55;89.09
13952;BME280;39535;52.192;9.886;2023-04-26T02:18:18;100602.78;;;2.57;88.61
13952;BME280;39535;52.192;9.886;2023-04-26T02:20:46;100596.88;;;2.63;88.59
13952;BME280;39535;52.192;9.886;2023-04-26T02:23:13;100613.88;;;2.53;88.16
13952;BME280;39535;52.192;9.886;2023-04-26T02:25:40;100606.91;;;2.46;89.08
13952;BME280;39535;52.192;9.886;2023-04-26T02:28:07;100594.84;;;2.45;88.54
13952;BME280;39535;52.192;9.886;2023-04-26T02:30:34;100595.81;;;2.50;88.42
13952;BME280;39535;52.192;9.886;2023-04-26T02:33:02;100605.25;;;2.51;87.48
13952;BME280;39535;52.192;9.886;2023-04-26T02:35:31;100609.50;;;2.48;88.57
13952;BME280;39535;52.192;9.886;2023-04-26T02:37:57;100610.34;;;2.47;88.46
13952;BME280;39535;52.192;9.886;2023-04-26T02:40:24;100613.00;;;2.51;87.76
13952;BME280;39535;52.192;9.886;2023-04-26T02:42:51;100624.19;;;2.52;87.64
13952;BME280;39535;52.192;9.886;2023-04-26T02:45:17;100625.09;;;2.54;88.11
13952;BME280;39535;52.192;9.886;2023-04-26T02:47:44;100637.97;;;2.55;87.72
13952;BME280;39535;52.192;9.886;2023-04-26T02:50:12;100645.69;;;2.54;87.47
13952;BME280;39535;52.192;9.886;2023-04-26T02:52:38;100648.09;;;2.45;87.38
13952;BME280;39535;52.192;9.886;2023-04-26T02:55:06;100634.31;;;2.43;87.76
13952;BME280;39535;52.192;9.886;2023-04-26T02:57:33;100623.91;;;2.36;88.23
13952;BME280;39535;52.192;9.886;2023-04-26T02:59:59;100624.81;;;2.38;88.42
13952;BME280;39535;52.192;9.886;2023-04-26T03:02:26;100620.38;;;2.31;88.24
13952;BME280;39535;52.192;9.886;2023-04-26T03:04:54;100621.25;;;2.30;88.12
13952;BME280;39535;52.192;9.886;2023-04-26T03:07:24;100616.78;;;2.20;88.89
13952;BME280;39535;52.192;9.886;2023-04-26T03:09:51;100607.41;;;2.25;89.06
13952;BME280;39535;52.192;9.886;2023-04-26T03:12:18;100591.06;;;2.23;89.42
13952;BME280;39535;52.192;9.886;2023-04-26T03:14:45;100589.38;;;2.25;89.33
13952;BME280;39535;52.192;9.886;2023-04-26T03:17:11;100584.72;;;2.06;89.88
13952;BME280;39535;52.192;9.886;2023-04-26T03:19:38;100568.34;;;2.02;90.74
13952;BME280;39535;52.192;9.886;2023-04-26T03:22:04;100554.78;;;2.11;90.61
13952;BME280;39535;52.192;9.886;2023-04-26T03:24:32;100548.03;;;2.17;90.70
13952;BME280;39535;52.192;9.886;2023-04-26T03:26:59;100559.16;;;2.15;89.83
13952;BME280;39535;52.192;9.886;2023-04-26T03:29:26;100565.22;;;2.18;89.30
13952;BME280;39535;52.192;9.886;2023-04-26T03:31:52;100566.66;;;2.03;90.58
13952;BME280;39535;52.192;9.886;2023-04-26T03:34:19;100552.25;;;2.12;90.53
13952;BME280;39535;52.192;9.886;2023-04-26T03:36:46;100540.31;;;2.17;90.46
13952;BME280;39535;52.192;9.886;2023-04-26T03:39:13;100552.31;;;2.17;90.05
13952;BME280;39535;52.192;9.886;2023-04-26T03:41:42;100566.06;;;2.17;89.19
13952;BME280;39535;52.192;9.886;2023-04-26T03:44:12;100572.16;;;2.23;89.16
13952;BME280;39535;52.192;9.886;2023-04-26T03:46:39;100575.66;;;2.26;89.19
13952;BME280;39535;52.192;9.886;2023-04-26T03:49:06;100578.19;;;2.23;89.39
13952;BME280;39535;52.192;9.886;2023-04-26T03:51:32;100587.44;;;2.13;89.28
13952;BME280;39535;52.192;9.886;2023-04-26T03:53:59;100587.41;;;2.10;90.40
13952;BME280;39535;52.192;9.886;2023-04-26T03:56:25;100583.16;;;2.12;90.36
13952;BME280;39535;52.192;9.886;2023-04-26T03:58:53;100574.41;;;2.03;91.19
13952;BME280;39535;52.192;9.886;2023-04-26T04:01:19;100564.16;;;2.07;90.96
13952;BME280;39535;52.192;9.886;2023-04-26T04:03:45;100560.69;;;2.05;90.60
13952;BME280;39535;52.192;9.886;2023-04-26T04:06:12;100564.78;;;1.94;90.91
13952;BME280;39535;52.192;9.886;2023-04-26T04:08:38;100546.19;;;2.09;91.24
13952;BME280;39535;52.192;9.886;2023-04-26T04:11:05;100544.50;;;2.11;91.20
13952;BME280;39535;52.192;9.886;2023-04-26T04:13:31;100551.22;;;2.04;90.74
13952;BME280;39535;52.192;9.886;2023-04-26T04:15:59;100540.97;;;2.06;92.06
13952;BME280;39535;52.192;9.886;2023-04-26T04:18:25;100532.44;;;2.08;92.11
13952;BME280;39535;52.192;9.886;2023-04-26T04:20:51;100530.88;;;2.16;91.81
13952;BME280;39535;52.192;9.886;2023-04-26T04:23:18;100539.41;;;2.15;91.19
13952;BME280;39535;52.192;9.886;2023-04-26T04:25:44;100546.44;;;2.24;91.33
13952;BME280;39535;52.192;9.886;2023-04-26T04:28:12;100550.72;;;2.24;90.88
13952;BME280;39535;52.192;9.886;2023-04-26T04:30:40;100554.97;;;2.20;91.00
13952;BME280;39535;52.192;9.886;2023-04-26T04:33:09;100552.22;;;2.11;91.71
13952;BME280;39535;52.192;9.886;2023-04-26T04:35:36;100545.47;;;2.17;91.74
13952;BME280;39535;52.192;9.886;2023-04-26T04:38:02;100543.00;;;2.25;91.46
13952;BME280;39535;52.192;9.886;2023-04-26T04:40:29;100545.69;;;2.31;92.03
13952;BME280;39535;52.192;9.886;2023-04-26T04:42:56;100539.63;;;2.26;92.56
13952;BME280;39535;52.192;9.886;2023-04-26T04:45:25;100514.53;;;2.14;94.08
13952;BME280;39535;52.192;9.886;2023-04-26T04:47:51;100494.16;;;2.28;94.20
13952;BME280;39535;52.192;9.886;2023-04-26T04:50:19;100493.94;;;2.14;94.50
13952;BME280;39535;52.192;9.886;2023-04-26T04:52:47;100475.38;;;2.37;95.05
13952;BME280;39535;52.192;9.886;2023-04-26T04:55:14;100475.31;;;2.32;94.50
13952;BME280;39535;52.192;9.886;2023-04-26T04:57:40;100474.53;;;2.39;95.06
13952;BME280;39535;52.192;9.886;2023-04-26T05:00:08;100467.91;;;2.54;95.54
13952;BME280;39535;52.192;9.886;2023-04-26T05:02:36;100470.66;;;2.66;95.20
13952;BME280;39535;52.192;9.886;2023-04-26T05:05:03;100466.50;;;2.77;95.21
13952;BME280;39535;52.192;9.886;2023-04-26T05:07:31;100474.91;;;2.64;94.75
13952;BME280;39535;52.192;9.886;2023-04-26T05:09:58;100471.66;;;2.79;95.49
13952;BME280;39535;52.192;9.886;2023-04-26T05:12:25;100469.81;;;2.69;95.29
13952;BME280;39535;52.192;9.886;2023-04-26T05:14:51;100472.56;;;2.80;95.20
13952;BME280;39535;52.192;9.886;2023-04-26T05:17:17;100468.25;;;2.80;94.89
13952;BME280;39535;52.192;9.886;2023-04-26T05:19:44;100477.94;;;2.98;94.27
13952;BME280;39535;52.192;9.886;2023-04-26T05:22:10;100498.69;;;3.07;93.31
13952;BME280;39535;52.192;9.886;2023-04-26T05:24:44;100512.50;;;3.12;93.03
13952;BME280;39535;52.192;9.886;2023-04-26T05:27:10;100542.44;;;3.00;92.06
13952;BME280;39535;52.192;9.886;2023-04-26T05:29:36;100545.06;;;3.04;92.16
13952;BME280;39535;52.192;9.886;2023-04-26T05:32:03;100541.63;;;3.07;92.46
13952;BME280;39535;52.192;9.886;2023-04-26T05:34:30;100552.09;;;3.16;92.16
13952;BME280;39535;52.192;9.886;2023-04-26T05:36:56;100556.50;;;3.26;92.30
13952;BME280;39535;52.192;9.886;2023-04-26T05:39:23;100576.38;;;3.32;91.52
13952;BME280;39535;52.192;9.886;2023-04-26T05:41:50;100581.25;;;3.12;92.54
13952;BME280;39535;52.192;9.886;2023-04-26T05:44:17;100576.19;;;3.18;92.80
13952;BME280;39535;52.192;9.886;2023-04-26T05:46:45;100555.41;;;3.09;92.96
13952;BME280;39535;52.192;9.886;2023-04-26T05:49:11;100548.88;;;3.34;94.87
13952;BME280;39535;52.192;9.886;2023-04-26T05:51:37;100507.03;;;3.60;96.97
13952;BME280;39535;52.192;9.886;2023-04-26T05:54:04;100519.88;;;3.56;95.20
13952;BME280;39535;52.192;9.886;2023-04-26T05:56:30;100473.81;;;3.98;100.00
13952;BME280;39535;52.192;9.886;2023-04-26T05:58:58;100467.72;;;3.90;96.24
13952;BME280;39535;52.192;9.886;2023-04-26T06:01:24;100519.22;;;3.76;95.32
13952;BME280;39535;52.192;9.886;2023-04-26T06:03:51;100537.91;;;3.52;94.20
13952;BME280;39535;52.192;9.886;2023-04-26T06:06:18;100542.25;;;3.56;93.87
13952;BME280;39535;52.192;9.886;2023-04-26T06:08:44;100551.91;;;3.71;93.90
13952;BME280;39535;52.192;9.886;2023-04-26T06:11:11;100563.84;;;3.64;93.57
13952;BME280;39535;52.192;9.886;2023-04-26T06:13:37;100581.09;;;3.67;92.80
13952;BME280;39535;52.192;9.886;2023-04-26T06:16:05;100582.94;;;3.78;92.56
13952;BME280;39535;52.192;9.886;2023-04-26T06:18:32;100588.88;;;3.71;91.88
13952;BME280;39535;52.192;9.886;2023-04-26T06:20:58;100606.16;;;3.78;91.38
13952;BME280;39535;52.192;9.886;2023-04-26T06:23:25;100640.75;;;3.91;89.92
13952;BME280;39535;52.192;9.886;2023-04-26T06:25:51;100653.72;;;3.97;89.63
13952;BME280;39535;52.192;9.886;2023-04-26T06:28:17;100660.63;;;4.00;89.37
13952;BME280;39535;52.192;9.886;2023-04-26T06:30:44;100672.78;;;4.07;88.18
13952;BME280;39535;52.192;9.886;2023-04-26T06:33:12;100684.03;;;4.14;88.46
13952;BME280;39535;52.192;9.886;2023-04-26T06:35:39;100696.16;;;4.16;87.32
13952;BME280;39535;52.192;9.886;2023-04-26T06:38:05;100719.53;;;4.29;87.74
13952;BME280;39535;52.192;9.886;2023-04-26T06:40:32;100746.97;;;4.17;87.52
13952;BME280;39535;52.192;9.886;2023-04-26T06:42:59;100757.31;;;4.19;87.07
13952;BME280;39535;52.192;9.886;2023-04-26T06:45:25;100777.97;;;4.19;86.50
13952;BME280;39535;52.192;9.886;2023-04-26T06:47:52;100778.06;;;4.25;86.94
13952;BME280;39535;52.192;9.886;2023-04-26T06:50:20;100783.31;;;4.33;87.07
13952;BME280;39535;52.192;9.886;2023-04-26T06:52:46;100774.88;;;4.46;86.05
13952;BME280;39535;52.192;9.886;2023-04-26T06:55:12;100816.19;;;4.45;84.81
13952;BME280;39535;52.192;9.886;2023-04-26T06:57:40;100829.28;;;4.57;84.64
13952;BME280;39535;52.192;9.886;2023-04-26T07:00:07;100838.03;;;4.68;83.94
13952;BME280;39535;52.192;9.886;2023-04-26T07:02:34;100854.56;;;4.83;83.75
13952;BME280;39535;52.192;9.886;2023-04-26T07:05:01;100868.50;;;4.97;83.56
13952;BME280;39535;52.192;9.886;2023-04-26T07:07:29;100887.44;;;4.93;82.71
13952;BME280;39535;52.192;9.886;2023-04-26T07:09:55;100915.81;;;4.84;81.25
13952;BME280;39535;52.192;9.886;2023-04-26T07:12:22;100940.91;;;4.92;81.39
13952;BME280;39535;52.192;9.886;2023-04-26T07:14:48;100936.75;;;5.07;81.93
13952;BME280;39535;52.192;9.886;2023-04-26T07:17:14;100948.94;;;5.15;81.60
13952;BME280;39535;52.192;9.886;2023-04-26T07:19:41;100941.38;;;5.34;83.14
13952;BME280;39535;52.192;9.886;2023-04-26T07:22:07;100958.50;;;5.23;80.50
13952;BME280;39535;52.192;9.886;2023-04-26T07:24:35;100971.56;;;5.35;80.60
13952;BME280;39535;52.192;9.886;2023-04-26T07:27:02;101001.69;;;5.27;78.34
13952;BME280;39535;52.192;9.886;2023-04-26T07:29:29;101025.03;;;5.30;78.63
13952;BME280;39535;52.192;9.886;2023-04-26T07:31:55;101031.06;;;5.30;78.63
13952;BME280;39535;52.192;9.886;2023-04-26T07:34:23;101038.13;;;5.44;79.62
13952;BME280;39535;52.192;9.886;2023-04-26T07:36:49;101043.41;;;5.54;79.05
13952;BME280;39535;52.192;9.886;2023-04-26T07:39:15;101031.38;;;5.58;78.79
13952;BME280;39535;52.192;9.886;2023-04-26T07:41:43;101048.78;;;5.70;79.02
13952;BME280;39535;52.192;9.886;2023-04-26T07:44:09;101064.19;;;5.57;77.72
13952;BME280;39535;52.192;9.886;2023-04-26T07:46:36;101065.09;;;5.63;78.00
13952;BME280;39535;52.192;9.886;2023-04-26T07:49:02;101081.38;;;5.52;77.49
13952;BME280;39535;52.192;9.886;2023-04-26T07:51:29;101104.75;;;5.58;78.59
13952;BME280;39535;52.192;9.886;2023-04-26T07:53:55;101094.28;;;5.48;76.58
13952;BME280;39535;52.192;9.886;2023-04-26T07:56:22;101130.59;;;5.54;75.77
13952;BME280;39535;52.192;9.886;2023-04-26T07:58:50;101150.56;;;5.61;74.19
13952;BME280;39535;52.192;9.886;2023-04-26T08:01:16;101180.94;;;5.73;76.48
13952;BME280;39535;52.192;9.886;2023-04-26T08:03:43;101142.78;;;5.63;75.97
13952;BME280;39535;52.192;9.886;2023-04-26T08:06:09;101149.03;;;5.77;76.11
13952;BME280;39535;52.192;9.886;2023-04-26T08:08:36;101163.00;;;5.91;73.50
13952;BME280;39535;52.192;9.886;2023-04-26T08:11:07;101185.00;;;6.24;73.37
13952;BME280;39535;52.192;9.886;2023-04-26T08:13:34;101212.94;;;6.51;73.64
13952;BME280;39535;52.192;9.886;2023-04-26T08:16:01;101234.63;;;6.56;71.48
13952;BME280;39535;52.192;9.886;2023-04-26T08:18:28;101266.56;;;6.51;71.44
13952;BME280;39535;52.192;9.886;2023-04-26T08:20:54;101297.63;;;6.46;69.36
13952;BME280;39535;52.192;9.886;2023-04-26T08:23:20;101340.53;;;6.23;69.18
13952;BME280;39535;52.192;9.886;2023-04-26T08:25:47;101345.94;;;6.40;70.77
13952;BME280;39535;52.192;9.886;2023-04-26T08:28:14;101362.22;;;6.29;70.36
13952;BME280;39535;52.192;9.886;2023-04-26T08:30:40;101345.19;;;6.48;70.92
13952;BME280;39535;52.192;9.886;2023-04-26T08:33:09;101325.59;;;6.72;69.04
13952;BME280;39535;52.192;9.886;2023-04-26T08:35:35;101354.09;;;6.70;66.04
13952;BME280;39535;52.192;9.886;2023-04-26T08:38:01;101412.03;;;6.69;67.69
13952;BME280;39535;52.192;9.886;2023-04-26T08:40:28;101402.81;;;6.94;67.35
13952;BME280;39535;52.192;9.886;2023-04-26T08:42:55;101468.72;;;7.07;62.74
13952;BME280;39535;52.192;9.886;2023-04-26T08:45:23;101567.22;;;6.95;62.56
13952;BME280;39535;52.192;9.886;2023-04-26T08:47:52;101569.06;;;7.04;63.71
13952;BME280;39535;52.192;9.886;2023-04-26T08:50:22;101576.84;;;7.02;65.07
13952;BME280;39535;52.192;9.886;2023-04-26T08:52:49;101598.97;;;6.77;63.14
13952;BME280;39535;52.192;9.886;2023-04-26T08:55:18;101595.78;;;6.96;65.15
13952;BME280;39535;52.192;9.886;2023-04-26T08:57:46;101556.81;;;6.92;64.28
13952;BME280;39535;52.192;9.886;2023-04-26T09:00:14;101554.69;;;6.68;64.29
13952;BME280;39535;52.192;9.886;2023-04-26T09:02:44;101552.97;;;6.67;64.32
13952;BME280;39535;52.192;9.886;2023-04-26T09:05:11;101560.13;;;6.83;61.26
13952;BME280;39535;52.192;9.886;2023-04-26T09:07:44;101580.25;;;6.98;61.15
13952;BME280;39535;52.192;9.886;2023-04-26T09:10:12;101610.91;;;6.67;62.31
13952;BME280;39535;52.192;9.886;2023-04-26T09:12:38;101620.25;;;6.57;62.28
13952;BME280;39535;52.192;9.886;2023-04-26T09:15:06;101612.25;;;6.44;63.95
13952;BME280;39535;52.192;9.886;2023-04-26T09:17:34;101587.38;;;6.55;63.87
13952;BME280;39535;52.192;9.886;2023-04-26T09:20:16;101570.34;;;6.72;63.15
13952;BME280;39535;52.192;9.886;2023-04-26T09:22:45;101569.78;;;6.92;62.95
13952;BME280;39535;52.192;9.886;2023-04-26T09:25:12;101585.53;;;7.07;62.28
13952;BME280;39535;52.192;9.886;2023-04-26T09:27:40;101581.25;;;7.09;62.13
13952;BME280;39535;52.192;9.886;2023-04-26T09:30:08;101583.84;;;7.08;60.72
13952;BME280;39535;52.192;9.886;2023-04-26T09:32:46;101593.22;;;6.98;63.63
13952;BME280;39535;52.192;9.886;2023-04-26T09:35:21;101588.06;;;7.01;62.31
13952;BME280;39535;52.192;9.886;2023-04-26T09:37:54;101574.44;;;7.16;63.15
13952;BME280;39535;52.192;9.886;2023-04-26T09:40:24;101584.69;;;7.07;61.19
13952;BME280;39535;52.192;9.886;2023-04-26T09:42:58;101585.63;;;7.12;62.55
13952;BME280;39535;52.192;9.886;2023-04-26T09:45:25;101558.00;;;7.19;58.24
13952;BME280;39535;52.192;9.886;2023-04-26T09:47:52;101611.03;;;7.34;58.99
13952;BME280;39535;52.192;9.886;2023-04-26T09:50:27;101625.06;;;7.49;58.59
13952;BME280;39535;52.192;9.886;2023-04-26T09:52:55;101669.72;;;7.23;56.60
13952;BME280;39535;52.192;9.886;2023-04-26T09:55:25;101696.81;;;7.41;57.27
13952;BME280;39535;52.192;9.886;2023-04-26T09:57:52;101734.88;;;7.37;57.46
13952;BME280;39535;52.192;9.886;2023-04-26T10:00:19;101758.03;;;7.23;57.54
13952;BME280;39535;52.192;9.886;2023-04-26T10:02:46;101759.94;;;7.35;59.76
13952;BME280;39535;52.192;9.886;2023-04-26T10:05:13;101743.47;;;7.31;62.73
13952;BME280;39535;52.192;9.886;2023-04-26T10:07:40;101688.81;;;7.27;61.76
13952;BME280;39535;52.192;9.886;2023-04-26T10:10:09;101656.19;;;6.86;61.70
13952;BME280;39535;52.192;9.886;2023-04-26T10:12:37;101647.06;;;7.10;62.63
13952;BME280;39535;52.192;9.886;2023-04-26T10:15:07;101621.16;;;7.16;62.42
13952;BME280;39535;52.192;9.886;2023-04-26T10:17:34;101607.16;;;7.05;60.73
13952;BME280;39535;52.192;9.886;2023-04-26T10:20:01;101619.19;;;7.00;61.59
13952;BME280;39535;52.192;9.886;2023-04-26T10:22:34;101606.00;;;6.84;60.71
13952;BME280;39535;52.192;9.886;2023-04-26T10:25:02;101601.78;;;6.92;60.91
13952;BME280;39535;52.192;9.886;2023-04-26T10:27:49;101597.84;;;7.18;60.69
13952;BME280;39535;52.192;9.886;2023-04-26T10:30:18;101592.06;;;7.43;61.15
13952;BME280;39535;52.192;9.886;2023-04-26T10:33:10;101589.88;;;7.75;60.40
13952;BME280;39535;52.192;9.886;2023-04-26T10:35:58;101588.03;;;7.65;57.47
13952;BME280;39535;52.192;9.886;2023-04-26T10:38:25;101641.75;;;7.66;57.27
13952;BME280;39535;52.192;9.886;2023-04-26T10:40:52;101669.50;;;7.70;55.70
13952;BME280;39535;52.192;9.886;2023-04-26T10:43:29;101711.00;;;7.61;57.19
13952;BME280;39535;52.192;9.886;2023-04-26T10:45:56;101716.75;;;7.43;58.22
13952;BME280;39535;52.192;9.886;2023-04-26T10:48:43;101713.03;;;7.24;57.53
13952;BME280;39535;52.192;9.886;2023-04-26T10:51:09;101722.47;;;7.18;58.87
13952;BME280;39535;52.192;9.886;2023-04-26T10:53:58;101687.91;;;7.23;61.03
13952;BME280;39535;52.192;9.886;2023-04-26T10:56:51;101634.28;;;7.24;61.35
13952;BME280;39535;52.192;9.886;2023-04-26T10:59:22;101606.72;;;7.36;62.25
13952;BME280;39535;52.192;9.886;2023-04-26T11:01:48;101576.59;;;7.49;61.49
13952;BME280;39535;52.192;9.886;2023-04-26T11:04:17;101561.00;;;7.51;60.83
13952;BME280;39535;52.192;9.886;2023-04-26T11:06:48;101571.25;;;7.39;56.88
13952;BME280;39535;52.192;9.886;2023-04-26T11:09:35;101625.13;;;7.53;57.05
13952;BME280;39535;52.192;9.886;2023-04-26T11:12:05;101654.84;;;7.75;58.53
13952;BME280;39535;52.192;9.886;2023-04-26T11:14:33;101655.97;;;7.96;57.50
13952;BME280;39535;52.192;9.886;2023-04-26T11:17:02;101655.47;;;8.31;56.63
13952;BME280;39535;52.192;9.886;2023-04-26T11:19:29;101644.47;;;8.58;51.90
13952;BME280;39535;52.192;9.886;2023-04-26T11:21:55;101713.25;;;8.85;50.69
13952;BME280;39535;52.192;9.886;2023-04-26T11:24:25;101831.06;;;8.65;54.27
13952;BME280;39535;52.192;9.886;2023-04-26T11:26:52;101814.47;;;8.54;51.69
13952;BME280;39535;52.192;9.886;2023-04-26T11:29:18;101853.84;;;8.16;52.84
13952;BME280;39535;52.192;9.886;2023-04-26T11:31:51;101872.94;;;8.18;52.17
13952;BME280;39535;52.192;9.886;2023-04-26T11:34:20;101902.75;;;7.82;53.68
13952;BME280;39535;52.192;9.886;2023-04-26T11:36:50;101888.00;;;7.81;54.36
13952;BME280;39535;52.192;9.886;2023-04-26T11:39:18;101884.78;;;7.98;55.51
13952;BME280;39535;52.192;9.886;2023-04-26T11:41:45;101843.03;;;7.88;55.92
13952;BME280;39535;52.192;9.886;2023-04-26T11:44:11;101833.63;;;7.96;55.30
13952;BME280;39535;52.192;9.886;2023-04-26T11:46:38;101819.66;;;7.88;54.80
13952;BME280;39535;52.192;9.886;2023-04-26T11:49:06;101806.00;;;8.03;56.28
13952;BME280;39535;52.192;9.886;2023-04-26T11:51:33;101786.25;;;8.19;54.65
13952;BME280;39535;52.192;9.886;2023-04-26T11:54:00;101796.81;;;8.31;55.67
13952;BME280;39535;52.192;9.886;2023-04-26T11:56:27;101766.56;;;8.40;55.84
13952;BME280;39535;52.192;9.886;2023-04-26T11:58:55;101744.16;;;8.49;55.07
13952;BME280;39535;52.192;9.886;2023-04-26T12:01:23;101776.69;;;8.15;54.72
13952;BME280;39535;52.192;9.886;2023-04-26T12:03:51;101784.97;;;7.88;55.38
13952;BME280;39535;52.192;9.886;2023-04-26T12:06:19;101774.44;;;7.79;55.36
13952;BME280;39535;52.192;9.886;2023-04-26T12:08:51;101781.34;;;7.76;55.91
13952;BME280;39535;52.192;9.886;2023-04-26T12:11:18;101721.91;;;8.81;54.20
13952;BME280;39535;52.192;9.886;2023-04-26T12:13:45;101743.28;;;9.53;52.67
13952;BME280;39535;52.192;9.886;2023-04-26T12:16:12;101787.88;;;8.83;50.47
13952;BME280;39535;52.192;9.886;2023-04-26T12:18:40;101828.59;;;8.74;52.21
13952;BME280;39535;52.192;9.886;2023-04-26T12:21:06;101850.16;;;8.63;52.26
13952;BME280;39535;52.192;9.886;2023-04-26T12:23:38;101884.41;;;8.31;52.21
13952;BME280;39535;52.192;9.886;2023-04-26T12:26:06;101892.75;;;8.10;52.91
13952;BME280;39535;52.192;9.886;2023-04-26T12:28:35;101869.59;;;8.27;53.48
13952;BME280;39535;52.192;9.886;2023-04-26T12:31:02;101858.34;;;8.28;54.73
13952;BME280;39535;52.192;9.886;2023-04-26T12:33:28;101824.28;;;8.09;51.94
13952;BME280;39535;52.192;9.886;2023-04-26T12:35:57;101842.88;;;8.39;51.21
13952;BME280;39535;52.192;9.886;2023-04-26T12:38:24;101861.84;;;9.00;50.58
13952;BME280;39535;52.192;9.886;2023-04-26T12:40:52;101858.50;;;9.12;50.09
13952;BME280;39535;52.192;9.886;2023-04-26T12:43:18;101889.31;;;9.59;51.63
13952;BME280;39535;52.192;9.886;2023-04-26T12:45:48;101871.47;;;10.18;50.14
13952;BME280;39535;52.192;9.886;2023-04-26T12:48:14;101899.97;;;9.87;47.67
13952;BME280;39535;52.192;9.886;2023-04-26T12:50:41;101947.88;;;9.98;48.38
13952;BME280;39535;52.192;9.886;2023-04-26T12:53:08;101978.63;;;10.38;48.92
13952;BME280;39535;52.192;9.886;2023-04-26T12:55:35;102004.31;;;9.88;48.35
13952;BME280;39535;52.192;9.886;2023-04-26T12:58:03;102021.53;;;9.72;47.82
13952;BME280;39535;52.192;9.886;2023-04-26T13:00:30;101995.19;;;10.41;46.01
13952;BME280;39535;52.192;9.886;2023-04-26T13:02:56;102038.69;;;10.39;45.21